Latest Coastal Weather Observations for Moruya Airport

IDN60701

Issued at 8:32 pm EDT Sunday 7 March 2021 (issued every 10 minutes, with the page automatically refreshed every 10 minutes)

About coastal observations | Map of coastal stations | Coastal observations for NSW | Marine services | Other Formats
Station Details ID: 069148 Name: MORUYA AIRPORT AWS Lat: -35.90 Lon: 150.14 Height: 4.0 m
Data from the previous 72 hours. | See also: Recent months at Moruya Airport
Date/Time
EDT
Wind Sea
Height
m
Swell Vis
km
Cloud Weather Temp
°C
Press
MSL
hPa
Rain since
9am
mm
Dir  Spd
kts
Gust
kts
Height
m
Period
s
Dir
07/08:30pm N 6 9 - - - - 10 Clear - 20.7 1011.1 0.0
07/08:00pm N 8 10 - - - - 10 - - 21.2 1010.8 0.0
07/07:30pm NNE 12 17 - - - - 10 - - 22.0 1010.4 0.0
07/07:00pm NNE 14 18 - - - - 10 - - 22.2 1010.1 0.0
07/06:30pm NE 15 19 - - - - 10 - - 22.4 1010.1 0.0
07/06:00pm NE 15 20 - - - - 10 - - 22.7 1009.9 0.0
07/05:30pm NE 15 20 - - - - 10 - - 22.9 1009.9 0.0
07/05:00pm NE 14 18 - - - - 10 - - 23.5 1010.0 0.0
07/04:30pm NE 14 19 - - - - 10 - - 23.3 1010.0 0.0
07/04:00pm NE 15 19 - - - - 10 - - 23.4 1010.4 0.0
07/03:30pm NE 14 19 - - - - 10 - - 23.5 1010.7 0.0
07/03:00pm NE 15 20 - - - - 10 - - 22.8 1011.0 0.0
07/02:30pm NE 15 19 - - - - 10 - - 23.1 1011.3 0.0
07/02:00pm NE 14 20 - - - - 10 - - 22.3 1011.7 0.0
07/01:30pm NE 14 17 - - - - 10 - - 22.4 1012.1 0.0
07/01:00pm NE 14 19 - - - - 10 Partly cloudy - 22.2 1012.5 0.0
07/12:30pm NE 14 18 - - - - 10 Partly cloudy - 22.2 1013.0 0.0
07/12:00pm NE 13 17 - - - - 10 Partly cloudy - 21.5 1013.5 0.0
07/11:30am NE 12 16 - - - - 10 - - 21.4 1014.0 0.0
07/11:00am ENE 12 15 - - - - 10 Partly cloudy - 20.7 1014.3 0.0
07/10:30am ENE 9 10 - - - - 10 - - 20.4 1014.5 0.0
07/10:00am ENE 6 8 - - - - 10 - - 19.6 1014.7 0.0
07/09:30am NW 6 7 - - - - 10 Partly cloudy - 19.2 1014.8 0.0
07/09:00am WNW 1 5 - - - - 10 Mostly clear - 18.1 1014.9 0.6
07/08:30am CALM 0 0 - - - - 10 Cloudy - 16.7 1014.8 0.6
07/08:00am CALM 0 0 - - - - 10 Cloudy - 16.1 1014.9 0.6
07/07:30am CALM 0 0 - - - - 10 Partly cloudy - 15.8 1014.8 0.6
07/07:00am W 2 3 - - - - 10 Cloudy - 15.7 1014.6 0.6
07/06:51am WSW 1 3 - - - - 10 Partly cloudy - 15.7 1014.5 0.6
07/06:30am CALM 0 0 - - - - 10 Partly cloudy - 15.7 1014.4 0.6
07/06:27am CALM 0 0 - - - - 10 Partly cloudy - 15.7 1014.4 0.6
07/06:00am CALM 0 0 - - - - 10 Cloudy - 15.6 1014.1 0.6
07/05:30am WSW 3 4 - - - - 10 Partly cloudy - 15.7 1014.1 0.6
07/05:00am SSW 3 5 - - - - 10 Cloudy - 16.0 1014.1 0.6
07/04:30am SE 4 5 - - - - 10 Cloudy - 16.2 1014.1 0.6
07/04:00am SSE 4 5 - - - - 10 Partly cloudy - 15.7 1014.3 0.6
07/03:30am S 6 7 - - - - 10 Partly cloudy - 15.4 1014.5 0.6
07/03:00am SSW 5 7 - - - - 10 Cloudy - 15.7 1014.7 0.6
07/02:30am S 5 8 - - - - 10 Cloudy - 16.0 1015.0 0.6
07/02:00am SW 5 7 - - - - 10 Cloudy - 16.0 1015.2 0.6
07/01:30am S 5 6 - - - - 10 Partly cloudy - 16.3 1015.3 0.2
07/01:00am W 3 4 - - - - 10 Partly cloudy - 16.1 1015.3 0.2
07/12:30am S 5 7 - - - - 7 Partly cloudy - 16.6 1015.5 0.2
07/12:00am S 5 7 - - - - 7 Cloudy - 16.8 1015.6 0.0
 
Date/Time
EDT
Wind Sea
Height
m
Swell Vis
km
Cloud Weather Temp
°C
Press
MSL
hPa
Rain since
9am
mm
Dir  Spd
kts
Gust
kts
Height
m
Period
s
Dir
06/11:30pm SSW 4 7 - - - - 10 Partly cloudy - 17.5 1015.7 0.0
06/11:00pm SSW 3 5 - - - - 10 Partly cloudy - 17.9 1015.7 0.0
06/10:30pm NW 3 4 - - - - 10 Partly cloudy - 17.9 1015.7 0.0
06/10:00pm SSE 3 4 - - - - 10 Partly cloudy - 18.7 1015.6 0.0
06/09:30pm S 2 4 - - - - 10 Cloudy - 18.8 1015.4 0.0
06/09:00pm S 5 6 - - - - 10 Cloudy - 19.2 1015.2 0.0
06/08:30pm SSE 5 8 - - - - 10 Partly cloudy - 19.2 1014.9 0.0
06/08:00pm SSE 7 9 - - - - 10 Partly cloudy - 19.3 1014.4 0.0
06/07:30pm SE 7 9 - - - - 10 Cloudy - 19.4 1014.1 0.0
06/07:00pm SE 7 11 - - - - 10 Partly cloudy - 19.5 1013.9 0.0
06/06:30pm SSE 8 10 - - - - 10 Partly cloudy - 19.7 1013.7 0.0
06/06:00pm SE 8 11 - - - - 10 Cloudy - 20.0 1013.4 0.0
06/05:30pm SSE 9 12 - - - - 10 Partly cloudy - 21.0 1013.2 0.0
06/05:00pm SE 8 12 - - - - 10 Partly cloudy - 20.6 1013.0 0.0
06/04:30pm SSE 8 12 - - - - 10 Partly cloudy - 20.4 1013.0 0.0
06/04:00pm SE 9 13 - - - - 10 Cloudy - 20.8 1013.0 0.0
06/03:30pm SE 10 14 - - - - 10 Partly cloudy - 21.0 1013.1 0.0
06/03:00pm SE 10 15 - - - - 10 Mostly clear - 21.2 1013.0 0.0
06/02:30pm SE 10 14 - - - - 10 Partly cloudy - 22.4 1013.2 0.0
06/02:00pm SE 10 14 - - - - 10 - - 21.3 1013.3 0.0
06/01:30pm SE 11 15 - - - - 10 - - 21.6 1013.4 0.0
06/01:00pm SE 11 14 - - - - 10 Partly cloudy - 21.1 1013.4 0.0
06/12:30pm SE 9 13 - - - - 10 Cloudy - 20.2 1013.6 0.0
06/12:00pm SE 9 11 - - - - 10 Mostly cloudy - 20.2 1013.7 0.0
06/11:30am S 9 12 - - - - 10 Partly cloudy - 21.7 1013.8 0.0
06/11:00am S 6 12 - - - - 10 Partly cloudy - 20.9 1014.0 0.0
06/10:30am SSW 7 13 - - - - 10 - - 20.0 1014.0 0.0
06/10:00am SSW 5 8 - - - - 10 - - 19.2 1013.9 0.0
06/09:30am W 6 8 - - - - 10 - - 18.9 1013.9 0.0
06/09:00am W 7 10 - - - - 10 - - 17.3 1013.6 0.0
06/08:30am WNW 7 9 - - - - 10 - - 16.1 1013.2 0.0
06/08:00am W 6 8 - - - - 10 - - 15.0 1013.0 0.0
06/07:30am W 7 10 - - - - 10 - - 13.8 1012.6 0.0
06/07:00am W 7 9 - - - - 10 - - 13.2 1012.5 0.0
06/06:30am W 7 10 - - - - 10 - - 12.8 1012.2 0.0
06/06:00am W 7 9 - - - - 10 - - 12.7 1012.1 0.0
06/05:30am W 6 7 - - - - 10 - - 12.5 1011.9 0.0
06/05:00am W 6 8 - - - - 10 - - 13.1 1011.8 0.0
06/04:30am WSW 6 7 - - - - 10 - - 13.6 1012.0 0.0
06/04:00am WSW 7 10 - - - - 10 Partly cloudy - 14.3 1011.8 0.0
06/03:30am SW 8 11 - - - - 10 Cloudy - 15.0 1011.8 0.0
06/03:00am SSW 9 13 - - - - 10 Mostly cloudy - 15.4 1011.9 0.0
06/02:30am SSW 9 12 - - - - 10 Cloudy - 15.4 1012.0 0.0
06/02:00am SSW 8 11 - - - - 10 Partly cloudy - 15.4 1012.1 0.0
06/01:30am SSW 9 12 - - - - 10 Partly cloudy - 15.6 1012.2 0.0
06/01:00am SSW 7 10 - - - - 10 Partly cloudy - 15.7 1012.2 0.0
06/12:30am SW 7 10 - - - - 10 Cloudy - 15.9 1012.1 0.0
06/12:00am SW 7 10 - - - - 10 Mostly cloudy - 16.2 1011.9 0.0
 
Date/Time
EDT
Wind Sea
Height
m
Swell Vis
km
Cloud Weather Temp
°C
Press
MSL
hPa
Rain since
9am
mm
Dir  Spd
kts
Gust
kts
Height
m
Period
s
Dir
05/11:30pm SW 7 9 - - - - 10 Partly cloudy - 16.3 1011.9 0.0
05/11:00pm SW 7 9 - - - - 10 Cloudy - 17.1 1011.6 0.0
05/10:30pm S 10 15 - - - - 10 Cloudy - 18.0 1011.6 0.0
05/10:00pm SSE 12 16 - - - - 10 Cloudy - 18.3 1011.6 0.0
05/09:30pm S 9 12 - - - - 10 Cloudy - 18.5 1011.4 0.0
05/09:00pm S 8 11 - - - - 10 Cloudy - 18.5 1011.2 0.0
05/08:30pm S 9 13 - - - - 10 Partly cloudy - 18.4 1010.9 0.0
05/08:00pm SSE 9 11 - - - - 10 Cloudy - 18.8 1010.5 0.0
05/07:30pm S 9 13 - - - - 10 Partly cloudy - 19.0 1010.3 0.0
05/07:00pm SSE 11 14 - - - - 10 Partly cloudy - 19.3 1010.1 0.0
05/06:30pm SSE 12 15 - - - - 10 - - 19.6 1009.8 0.0
05/06:00pm SSE 10 15 - - - - 10 - - 20.6 1009.5 0.0
05/05:30pm SSE 11 14 - - - - 10 - - 20.6 1009.0 0.0
05/05:00pm SSE 11 16 - - - - 10 - - 20.8 1008.7 0.0
05/04:30pm SSE 12 16 - - - - 10 - - 21.1 1008.6 0.0
05/04:00pm SSE 12 17 - - - - 10 - - 21.4 1008.8 0.0
05/03:30pm SSE 11 16 - - - - 10 - - 21.1 1009.0 0.0
05/03:00pm SSE 13 19 - - - - 10 - - 20.9 1009.2 0.0
05/02:30pm SSE 12 17 - - - - 10 - - 21.5 1009.2 0.0
05/02:00pm SSE 12 17 - - - - 10 - - 21.4 1009.2 0.0
05/01:30pm SSE 15 21 - - - - 10 - - 21.9 1009.1 0.0
05/01:00pm SSE 14 19 - - - - 10 - - 21.4 1009.2 0.0
05/12:30pm SSE 12 17 - - - - 10 - - 21.6 1009.2 0.0
05/12:00pm SSE 12 17 - - - - 10 - - 21.5 1009.6 0.0
05/11:30am S 13 22 - - - - 10 - - 21.3 1009.7 0.0
05/11:00am S 17 23 - - - - 10 - - 21.0 1009.6 0.0
05/10:30am S 18 24 - - - - 10 - - 20.0 1009.7 0.0
05/10:00am S 17 24 - - - - 10 - - 19.5 1009.7 0.0
05/09:30am SSW 13 19 - - - - 10 - - 19.3 1009.2 0.0
05/09:00am S 13 18 - - - - 10 - - 19.0 1008.8 0.0
05/08:30am SW 7 11 - - - - 10 - - 17.8 1008.3 0.0
05/08:00am SW 7 9 - - - - 10 - - 16.6 1008.0 0.0
05/07:30am SW 6 9 - - - - 10 - - 15.6 1007.6 0.0
05/07:00am SW 8 9 - - - - 10 - - 14.1 1007.2 0.0
05/06:30am WSW 4 4 - - - - 10 - - 13.7 1007.1 0.0
05/06:00am WSW 6 8 - - - - 10 - - 14.2 1006.7 0.0
05/05:30am WSW 4 5 - - - - 10 - - 13.4 1006.2 0.0
05/05:00am W 2 5 - - - - 10 - - 13.3 1006.1 0.0
05/04:30am W 2 4 - - - - 10 - - 13.8 1006.1 0.0
05/04:00am W 4 6 - - - - 10 - - 14.4 1006.1 0.0
05/03:30am W 2 5 - - - - 10 - - 14.7 1006.2 0.0
05/03:00am CALM 0 0 - - - - 10 - - 14.9 1006.4 0.0
05/02:30am WNW 3 4 - - - - 10 - - 15.7 1006.5 0.0
05/02:00am WNW 3 5 - - - - 10 - - 16.1 1007.1 0.0
05/01:30am WNW 5 7 - - - - 10 - - 16.6 1007.6 0.0
05/01:00am W 3 5 - - - - 10 - - 16.3 1007.6 0.0
05/12:30am W 1 3 - - - - 10 - - 16.6 1007.7 0.0
05/12:00am W 3 5 - - - - 10 Cloudy - 16.8 1007.8 0.0
 
Date/Time
EDT
Wind Sea
Height
m
Swell Vis
km
Cloud Weather Temp
°C
Press
MSL
hPa
Rain since
9am
mm
Dir  Spd
kts
Gust
kts
Height
m
Period
s
Dir
04/11:30pm W 3 4 - - - - 10 - - 17.2 1007.9 0.0
04/11:00pm WSW 5 6 - - - - 10 Partly cloudy - 18.0 1008.1 0.0
04/10:30pm WSW 5 6 - - - - 10 Partly cloudy - 18.5 1008.3 0.0
04/10:00pm SW 4 5 - - - - 10 Cloudy - 18.7 1008.4 0.0
04/09:30pm SSW 5 6 - - - - 10 Partly cloudy - 18.9 1008.6 0.0
04/09:00pm WSW 4 5 - - - - 10 Partly cloudy - 18.0 1008.4 0.0

Other formats

Comma delimited format used in spreadsheet applications
http://www.bom.gov.au/fwo/IDN60701/IDN60701.95937.axf

JavaScript Object Notation format (JSON) in row-major order
http://www.bom.gov.au/fwo/IDN60701/IDN60701.95937.json

Data quality

Most of these data are generated automatically and are frequently updated. Quality checks on data are not normally performed. It is possible for incorrect values to appear. Refer to information at About Latest Weather Observations and please check the disclaimer before using these data.